Time;durP1;ratioP1;P1;durP2;ratioP2;P2;SDS_P1;SDS_P2;PMS_P1;PMS_P2;Temp;Humidity;BMP_temperature;BMP_pressure;BME280_temperature;BME280_humidity;BME280_pressure;Samples;Min_cycle;Max_cycle;Signal;HPM_P1;HPM_P2
2022/11/06 00:02:25;;;;;;;;;;;;;;;;;;5050107;28;19954;-63
2022/11/06 00:04:51;;;;;;;;;;;;;;;;;;5050084;28;19913;-64
2022/11/06 00:07:16;;;;;;;;;;;;;;;;;;5050323;28;19917;-63
2022/11/06 00:09:42;;;;;;;;;;;;;;;;;;5049636;28;19963;-64
2022/11/06 00:12:08;;;;;;;;;;;;;;;;;;5050050;28;19916;-63
2022/11/06 00:14:34;;;;;;;;;;;;;;;;;;5049579;28;20015;-63
2022/11/06 00:17:00;;;;;;;;;;;;;;;;;;5048772;28;19913;-64
2022/11/06 00:19:26;;;;;;;;;;;;;;;;;;5049370;28;20011;-62
2022/11/06 00:21:52;;;;;;;;;;;;;;;;;;5050408;28;19921;-63
2022/11/06 00:24:18;;;;;;;;;;;;;;;;;;5049374;28;19963;-62
2022/11/06 00:26:43;;;;;;;;;;;;;;;;;;5049288;28;19920;-63
2022/11/06 00:29:09;;;;;;;;;;;;;;;;;;5049217;28;19920;-63
2022/11/06 00:31:35;;;;;;;;;;;;;;;;;;5049991;28;19949;-63
2022/11/06 00:34:01;;;;;;;;;;;;;;;;;;5049856;28;20305;-62
2022/11/06 00:36:29;;;;;;;;;;;;;;;;;;5049891;28;19921;-63
2022/11/06 00:38:55;;;;;;;;;;;;;;;;;;5048904;28;19909;-62
2022/11/06 00:41:21;;;;;;;;;;;;;;;;;;5049551;28;20695;-62
2022/11/06 00:43:46;;;;;;;;;;;;;;;;;;5044327;28;19912;-62
2022/11/06 00:46:12;;;;;;;;;;;;;;;;;;5048937;28;19917;-63
2022/11/06 00:48:38;;;;;;;;;;;;;;;;;;5047183;28;20373;-63
2022/11/06 00:51:04;;;;;;;;;;;;;;;;;;5048990;28;19951;-64
2022/11/06 00:53:30;;;;;;;;;;;;;;;;;;5046138;28;19995;-64
2022/11/06 00:55:56;;;;;;;;;;;;;;;;;;5039689;28;19909;-63
2022/11/06 00:58:22;;;;;;;;;;;;;;;;;;5045274;28;19951;-63
2022/11/06 01:00:48;;;;;;;;;;;;;;;;;;5044059;28;19963;-63
2022/11/06 01:03:13;;;;;;;;;;;;;;;;;;5049503;28;19912;-63
2022/11/06 01:05:40;;;;;;;;;;;;;;;;;;5037663;28;20576;-63
2022/11/06 01:08:06;;;;;;;;;;;;;;;;;;5048565;28;19908;-63
2022/11/06 01:10:32;;;;;;;;;;;;;;;;;;5031151;28;19920;-63
2022/11/06 01:12:58;;;;;;;;;;;;;;;;;;5048949;28;20286;-63
2022/11/06 01:15:24;;;;;;;;;;;;;;;;;;5048887;28;20024;-62
2022/11/06 01:17:50;;;;;;;;;;;;;;;;;;5048669;28;20266;-63
2022/11/06 01:20:16;;;;;;;;;;;;;;;;;;5050720;28;19913;-63
2022/11/06 01:22:42;;;;;;;;;;;;;;;;;;5053112;28;20373;-63
2022/11/06 01:25:07;;;;;;;;;;;;;;;;;;5053010;28;19921;-63
2022/11/06 01:27:34;;;;;;;;;;;;;;;;;;5053337;28;20381;-63
2022/11/06 01:30:00;;;;;;;;;;;;;;;;;;5053073;28;19909;-63
2022/11/06 01:32:26;;;;;;;;;;;;;;;;;;5053382;28;20361;-63
2022/11/06 01:34:51;;;;;;;;;;;;;;;;;;5052992;28;19919;-63
2022/11/06 01:37:17;;;;;;;;;;;;;;;;;;5053248;28;19928;-63
2022/11/06 01:39:43;;;;;;;;;;;;;;;;;;5052850;28;19909;-63
2022/11/06 01:42:09;;;;;;;;;;;;;;;;;;5048569;28;19912;-63
2022/11/06 01:44:35;;;;;;;;;;;;;;;;;;5053102;28;19909;-64
2022/11/06 01:47:01;;;;;;;;;;;;;;;;;;5053827;28;19975;-64
2022/11/06 01:49:27;;;;;;;;;;;;;;;;;;5050175;28;20443;-62
2022/11/06 01:51:53;;;;;;;;;;;;;;;;;;5052675;28;20000;-62
2022/11/06 01:54:19;;;;;;;;;;;;;;;;;;5052825;28;19944;-63
2022/11/06 01:56:44;;;;;;;;;;;;;;;;;;5052741;28;19983;-63
2022/11/06 01:59:10;;;;;;;;;;;;;;;;;;5052711;28;19913;-63
2022/11/06 02:01:38;;;;;;;;;;;;;;;;;;5047311;28;21338;-63
2022/11/06 02:04:04;;;;;;;;;;;;;;;;;;5053439;28;19909;-63
2022/11/06 02:06:30;;;;;;;;;;;;;;;;;;5049647;28;19968;-62
2022/11/06 02:08:56;;;;;;;;;;;;;;;;;;5052674;28;19916;-63
2022/11/06 02:11:21;;;;;;;;;;;;;;;;;;5052512;28;19912;-63
2022/11/06 02:13:47;;;;;;;;;;;;;;;;;;5052367;28;20011;-63
2022/11/06 02:16:13;;;;;;;;;;;;;;;;;;5052506;28;20266;-63
2022/11/06 02:18:39;;;;;;;;;;;;;;;;;;5048922;28;20278;-63
2022/11/06 02:21:05;;;;;;;;;;;;;;;;;;5051855;28;19909;-64
2022/11/06 02:23:31;;;;;;;;;;;;;;;;;;5052179;28;19913;-63
2022/11/06 02:25:57;;;;;;;;;;;;;;;;;;5051820;28;19933;-64
2022/11/06 02:28:23;;;;;;;;;;;;;;;;;;5052209;28;20334;-63
2022/11/06 02:30:49;;;;;;;;;;;;;;;;;;5051691;28;19920;-63
2022/11/06 02:33:14;;;;;;;;;;;;;;;;;;5051396;28;19931;-63
2022/11/06 02:35:40;;;;;;;;;;;;;;;;;;5052408;28;19955;-63
2022/11/06 02:38:06;;;;;;;;;;;;;;;;;;5051071;28;19909;-64
2022/11/06 02:40:32;;;;;;;;;;;;;;;;;;5051716;28;20005;-63
2022/11/06 02:42:58;;;;;;;;;;;;;;;;;;5051644;28;19913;-63
2022/11/06 02:45:24;;;;;;;;;;;;;;;;;;5051980;28;19930;-63
2022/11/06 02:47:50;;;;;;;;;;;;;;;;;;5051904;28;19962;-63
2022/11/06 02:50:16;;;;;;;;;;;;;;;;;;5051517;28;19919;-63
2022/11/06 02:52:42;;;;;;;;;;;;;;;;;;5051936;28;19909;-63
2022/11/06 02:55:08;;;;;;;;;;;;;;;;;;5051673;28;19917;-63
2022/11/06 02:57:35;;;;;;;;;;;;;;;;;;5052119;28;19917;-63
2022/11/06 03:00:01;;;;;;;;;;;;;;;;;;5051689;28;19913;-63
2022/11/06 03:02:27;;;;;;;;;;;;;;;;;;5048018;28;19915;-63
2022/11/06 03:04:53;;;;;;;;;;;;;;;;;;5046073;28;19909;-63
2022/11/06 03:07:19;;;;;;;;;;;;;;;;;;5049413;28;19916;-63
2022/11/06 03:09:45;;;;;;;;;;;;;;;;;;5045917;28;20032;-64
2022/11/06 03:12:11;;;;;;;;;;;;;;;;;;5044630;28;19996;-63
2022/11/06 03:14:37;;;;;;;;;;;;;;;;;;5047308;28;20296;-63
2022/11/06 03:17:03;;;;;;;;;;;;;;;;;;5050905;28;19913;-63
2022/11/06 03:19:29;;;;;;;;;;;;;;;;;;5046361;28;20365;-63
2022/11/06 03:21:55;;;;;;;;;;;;;;;;;;5049738;28;19913;-62
2022/11/06 03:24:20;;;;;;;;;;;;;;;;;;5050200;28;19963;-63
2022/11/06 03:26:46;;;;;;;;;;;;;;;;;;5032801;28;19932;-64
2022/11/06 03:29:12;;;;;;;;;;;;;;;;;;5047792;28;19963;-63
2022/11/06 03:31:38;;;;;;;;;;;;;;;;;;5031148;28;19936;-63
2022/11/06 03:34:04;;;;;;;;;;;;;;;;;;5046584;28;19909;-63
2022/11/06 03:36:30;;;;;;;;;;;;;;;;;;5046100;28;20004;-63
2022/11/06 03:38:56;;;;;;;;;;;;;;;;;;5048493;28;19913;-63
2022/11/06 03:41:22;;;;;;;;;;;;;;;;;;5051183;28;19986;-63
2022/11/06 03:43:47;;;;;;;;;;;;;;;;;;5049682;28;19963;-63
2022/11/06 03:46:13;;;;;;;;;;;;;;;;;;5050927;28;19917;-63
2022/11/06 03:48:39;;;;;;;;;;;;;;;;;;5050742;28;19912;-63
2022/11/06 03:51:05;;;;;;;;;;;;;;;;;;5050570;28;19909;-63
2022/11/06 03:53:32;;;;;;;;;;;;;;;;;;5050520;28;20381;-62
2022/11/06 03:55:58;;;;;;;;;;;;;;;;;;5050206;28;20393;-63
2022/11/06 03:58:24;;;;;;;;;;;;;;;;;;5050726;28;20008;-63
2022/11/06 04:00:50;;;;;;;;;;;;;;;;;;5050378;28;19912;-63
2022/11/06 04:03:15;;;;;;;;;;;;;;;;;;5050252;28;19916;-63
2022/11/06 04:05:41;;;;;;;;;;;;;;;;;;5050403;28;20012;-63
2022/11/06 04:16:21;;;;;;;;;;;;;;;;;;5049961;28;19954;-62
2022/11/06 04:18:47;;;;;;;;;;;;;;;;;;5050263;28;19921;-63
2022/11/06 04:21:23;;;;;;;;;;;;;;;;;;5050226;28;19912;-62
2022/11/06 04:26:34;;;;;;;;;;;;;;;;;;5045026;28;19921;-63
2022/11/06 04:26:35;;;;;;;;;;;;;;;;;;5049542;28;20066;-63
2022/11/06 04:29:01;;;;;;;;;;;;;;;;;;5032211;28;20412;-62
2022/11/06 04:31:27;;;;;;;;;;;;;;;;;;5049616;28;19920;-61
2022/11/06 04:33:53;;;;;;;;;;;;;;;;;;5048686;28;20382;-62
2022/11/06 04:36:19;;;;;;;;;;;;;;;;;;5045396;28;19909;-62
2022/11/06 04:38:44;;;;;;;;;;;;;;;;;;5047938;28;20343;-62
2022/11/06 04:41:11;;;;;;;;;;;;;;;;;;5044294;28;19916;-63
2022/11/06 04:43:37;;;;;;;;;;;;;;;;;;5046746;28;19939;-62
2022/11/06 04:46:03;;;;;;;;;;;;;;;;;;5045487;28;20321;-63
2022/11/06 04:48:29;;;;;;;;;;;;;;;;;;5049950;28;19920;-63
2022/11/06 04:50:55;;;;;;;;;;;;;;;;;;5045452;28;19909;-63
2022/11/06 04:53:21;;;;;;;;;;;;;;;;;;5048193;28;19974;-62
2022/11/06 04:55:46;;;;;;;;;;;;;;;;;;5046420;28;20377;-64
2022/11/06 04:58:12;;;;;;;;;;;;;;;;;;5049148;28;19948;-62
2022/11/06 05:00:38;;;;;;;;;;;;;;;;;;5046608;28;19978;-62
2022/11/06 05:03:04;;;;;;;;;;;;;;;;;;5049209;28;19920;-63
2022/11/06 05:05:31;;;;;;;;;;;;;;;;;;5044933;28;20369;-63
2022/11/06 05:07:57;;;;;;;;;;;;;;;;;;5048502;28;19913;-63
2022/11/06 05:10:22;;;;;;;;;;;;;;;;;;5049223;28;19980;-62
2022/11/06 05:12:48;;;;;;;;;;;;;;;;;;5043518;28;20047;-63
2022/11/06 05:15:14;;;;;;;;;;;;;;;;;;5047044;28;19916;-63
2022/11/06 05:17:40;;;;;;;;;;;;;;;;;;5047241;28;20348;-62
2022/11/06 05:20:06;;;;;;;;;;;;;;;;;;5046763;28;19995;-62
2022/11/06 05:25:37;;;;;;;;;;;;;;;;;;4986895;28;19926;-62
2022/11/06 05:28:04;;;;;;;;;;;;;;;;;;4988254;28;19914;-62
2022/11/06 05:30:30;;;;;;;;;;;;;;;;;;4987133;28;19921;-62
2022/11/06 05:32:56;;;;;;;;;;;;;;;;;;4987097;28;19913;-63
2022/11/06 05:35:22;;;;;;;;;;;;;;;;;;4987697;28;19914;-63
2022/11/06 05:37:48;;;;;;;;;;;;;;;;;;4987442;28;19925;-63
2022/11/06 05:40:14;;;;;;;;;;;;;;;;;;4987450;28;20485;-63
2022/11/06 05:42:40;;;;;;;;;;;;;;;;;;4987748;28;19910;-61
2022/11/06 05:45:05;;;;;;;;;;;;;;;;;;4986831;28;19989;-63
2022/11/06 05:47:31;;;;;;;;;;;;;;;;;;4987251;28;20040;-62
2022/11/06 05:49:57;;;;;;;;;;;;;;;;;;4985987;28;19937;-61
2022/11/06 05:52:23;;;;;;;;;;;;;;;;;;4987309;28;20009;-63
2022/11/06 05:54:49;;;;;;;;;;;;;;;;;;4987205;28;19914;-63
2022/11/06 05:57:15;;;;;;;;;;;;;;;;;;5040533;28;19919;-62
2022/11/06 05:59:41;;;;;;;;;;;;;;;;;;5041243;28;19913;-62
2022/11/06 06:02:07;;;;;;;;;;;;;;;;;;5048547;28;19963;-62
2022/11/06 06:04:33;;;;;;;;;;;;;;;;;;5048880;28;20401;-62
2022/11/06 06:06:59;;;;;;;;;;;;;;;;;;5048337;28;20010;-62
2022/11/06 06:09:25;;;;;;;;;;;;;;;;;;5052052;28;20377;-62
2022/11/06 06:11:51;;;;;;;;;;;;;;;;;;5048902;28;19939;-63
2022/11/06 06:14:17;;;;;;;;;;;;;;;;;;5047897;28;19912;-63
2022/11/06 06:16:43;;;;;;;;;;;;;;;;;;5052370;28;19909;-63
2022/11/06 06:19:08;;;;;;;;;;;;;;;;;;5048930;28;20048;-63
2022/11/06 06:21:35;;;;;;;;;;;;;;;;;;5048076;28;19909;-63
2022/11/06 06:24:01;;;;;;;;;;;;;;;;;;5048159;28;20389;-63
2022/11/06 06:26:27;;;;;;;;;;;;;;;;;;5049011;28;19967;-62
2022/11/06 06:28:53;;;;;;;;;;;;;;;;;;5050204;28;19912;-63
2022/11/06 06:31:19;;;;;;;;;;;;;;;;;;5051755;28;19912;-62
2022/11/06 06:33:44;;;;;;;;;;;;;;;;;;5051365;28;19952;-63
2022/11/06 06:36:10;;;;;;;;;;;;;;;;;;5051908;28;19909;-62
2022/11/06 06:38:36;;;;;;;;;;;;;;;;;;5046497;28;20113;-63
2022/11/06 06:41:02;;;;;;;;;;;;;;;;;;5047012;28;20300;-63
2022/11/06 06:43:28;;;;;;;;;;;;;;;;;;5049862;28;20639;-63
2022/11/06 06:45:54;;;;;;;;;;;;;;;;;;5051497;28;20369;-62
2022/11/06 06:48:20;;;;;;;;;;;;;;;;;;5051521;28;19912;-63
2022/11/06 06:50:46;;;;;;;;;;;;;;;;;;5048180;28;20029;-62
2022/11/06 06:53:12;;;;;;;;;;;;;;;;;;5051755;28;19915;-62
2022/11/06 06:55:39;;;;;;;;;;;;;;;;;;5046671;28;20133;-63
2022/11/06 06:58:05;;;;;;;;;;;;;;;;;;5045983;28;20003;-61
2022/11/06 07:00:31;;;;;;;;;;;;;;;;;;5033532;28;20392;-62
2022/11/06 07:02:57;;;;;;;;;;;;;;;;;;5044479;28;19920;-63
2022/11/06 07:05:22;;;;;;;;;;;;;;;;;;5044392;28;20511;-68
2022/11/06 07:07:48;;;;;;;;;;;;;;;;;;5047205;28;19917;-69
2022/11/06 07:10:14;;;;;;;;;;;;;;;;;;5048025;28;19913;-68
2022/11/06 07:12:40;;;;;;;;;;;;;;;;;;5047184;28;19921;-68
2022/11/06 07:15:06;;;;;;;;;;;;;;;;;;5049762;28;20369;-68
2022/11/06 07:17:32;;;;;;;;;;;;;;;;;;5049947;28;19924;-69
2022/11/06 07:19:58;;;;;;;;;;;;;;;;;;5046461;28;20374;-70
2022/11/06 07:22:24;;;;;;;;;;;;;;;;;;5043671;28;19956;-69
2022/11/06 07:24:49;;;;;;;;;;;;;;;;;;5027765;28;20403;-69
2022/11/06 07:27:15;;;;;;;;;;;;;;;;;;5051025;28;19921;-70
2022/11/06 07:29:41;;;;;;;;;;;;;;;;;;5048854;28;20007;-70
2022/11/06 07:32:07;;;;;;;;;;;;;;;;;;5049858;28;19928;-70
2022/11/06 07:34:33;;;;;;;;;;;;;;;;;;5044644;28;19919;-70
2022/11/06 07:36:59;;;;;;;;;;;;;;;;;;5031796;28;20084;-70
2022/11/06 07:39:25;;;;;;;;;;;;;;;;;;5049296;28;19920;-70
2022/11/06 07:41:51;;;;;;;;;;;;;;;;;;5046487;28;19913;-70
2022/11/06 07:44:17;;;;;;;;;;;;;;;;;;5049831;28;19912;-80
2022/11/06 07:46:42;;;;;;;;;;;;;;;;;;5043246;28;19956;-78
2022/11/06 07:49:08;;;;;;;;;;;;;;;;;;5038695;28;19920;-78
2022/11/06 07:51:34;;;;;;;;;;;;;;;;;;5048001;28;19913;-75
2022/11/06 07:54:00;;;;;;;;;;;;;;;;;;5046225;28;19924;-78
2022/11/06 07:56:26;;;;;;;;;;;;;;;;;;5049768;28;19917;-79
2022/11/06 07:58:52;;;;;;;;;;;;;;;;;;5044869;28;19924;-77
2022/11/06 08:01:18;;;;;;;;;;;;;;;;;;5050656;28;19960;-78
2022/11/06 08:03:44;;;;;;;;;;;;;;;;;;5048516;28;19917;-79
2022/11/06 08:06:10;;;;;;;;;;;;;;;;;;5049784;28;19921;-79
2022/11/06 08:08:36;;;;;;;;;;;;;;;;;;5047291;28;20727;-78
2022/11/06 08:11:02;;;;;;;;;;;;;;;;;;5047231;28;19963;-77
2022/11/06 08:13:28;;;;;;;;;;;;;;;;;;5044526;28;19931;-79
2022/11/06 08:15:54;;;;;;;;;;;;;;;;;;5045379;28;19913;-79
2022/11/06 08:18:20;;;;;;;;;;;;;;;;;;5051053;28;19924;-80
2022/11/06 08:20:46;;;;;;;;;;;;;;;;;;5047299;28;19916;-79
2022/11/06 08:23:12;;;;;;;;;;;;;;;;;;5050236;28;19999;-78
2022/11/06 08:25:37;;;;;;;;;;;;;;;;;;5051328;28;20020;-79
2022/11/06 08:28:03;;;;;;;;;;;;;;;;;;5048789;28;19924;-79
2022/11/06 08:30:29;;;;;;;;;;;;;;;;;;5044638;28;20031;-68
2022/11/06 08:32:55;;;;;;;;;;;;;;;;;;5044409;28;19924;-78
2022/11/06 08:35:21;;;;;;;;;;;;;;;;;;5043494;28;20576;-79
2022/11/06 08:37:47;;;;;;;;;;;;;;;;;;5046522;28;19921;-78
2022/11/06 08:40:13;;;;;;;;;;;;;;;;;;5046882;28;19920;-77
2022/11/06 08:42:39;;;;;;;;;;;;;;;;;;5046897;28;19956;-78
2022/11/06 08:45:04;;;;;;;;;;;;;;;;;;5043395;28;19912;-77
2022/11/06 08:47:30;;;;;;;;;;;;;;;;;;5046645;28;19916;-78
2022/11/06 08:49:56;;;;;;;;;;;;;;;;;;5043477;28;20356;-76
2022/11/06 08:52:22;;;;;;;;;;;;;;;;;;5046980;28;19926;-77
2022/11/06 08:54:48;;;;;;;;;;;;;;;;;;5043494;28;19913;-78
2022/11/06 08:57:14;;;;;;;;;;;;;;;;;;5046495;28;19912;-77
2022/11/06 08:59:40;;;;;;;;;;;;;;;;;;5046719;28;19917;-77
2022/11/06 09:02:06;;;;;;;;;;;;;;;;;;5043762;28;19916;-76
2022/11/06 09:04:31;;;;;;;;;;;;;;;;;;5047200;28;19963;-76
2022/11/06 09:06:57;;;;;;;;;;;;;;;;;;5043268;28;19946;-75
2022/11/06 09:09:30;;;;;;;;;;;;;;;;;;5046425;28;19916;-79
2022/11/06 09:11:56;;;;;;;;;;;;;;;;;;5047424;28;20448;-76
2022/11/06 09:14:22;;;;;;;;;;;;;;;;;;5046873;28;19917;-77
2022/11/06 09:16:48;;;;;;;;;;;;;;;;;;5043631;28;19924;-77
2022/11/06 09:19:14;;;;;;;;;;;;;;;;;;5046931;28;19913;-77
2022/11/06 09:21:40;;;;;;;;;;;;;;;;;;5046372;28;19916;-79
2022/11/06 09:24:05;;;;;;;;;;;;;;;;;;5049405;28;19960;-79
2022/11/06 09:26:31;;;;;;;;;;;;;;;;;;5048468;28;20348;-79
2022/11/06 09:28:57;;;;;;;;;;;;;;;;;;5044143;28;19923;-70
2022/11/06 09:31:23;;;;;;;;;;;;;;;;;;5047327;28;20547;-78
2022/11/06 09:33:50;;;;;;;;;;;;;;;;;;5046726;28;19974;-79
2022/11/06 09:36:16;;;;;;;;;;;;;;;;;;5047346;28;20033;-78
2022/11/06 09:38:41;;;;;;;;;;;;;;;;;;5047076;28;20008;-79
2022/11/06 09:41:07;;;;;;;;;;;;;;;;;;5047329;28;20671;-79
2022/11/06 09:43:33;;;;;;;;;;;;;;;;;;5050392;28;19924;-78
2022/11/06 09:45:59;;;;;;;;;;;;;;;;;;5052453;28;20639;-80
2022/11/06 09:48:25;;;;;;;;;;;;;;;;;;5052860;28;19981;-79
2022/11/06 09:50:51;;;;;;;;;;;;;;;;;;5050212;28;19916;-78
2022/11/06 09:53:17;;;;;;;;;;;;;;;;;;5050093;28;19924;-80
2022/11/06 09:55:43;;;;;;;;;;;;;;;;;;5050824;28;19909;-80
2022/11/06 09:58:09;;;;;;;;;;;;;;;;;;5050941;28;19917;-80
2022/11/06 10:00:35;;;;;;;;;;;;;;;;;;5050205;28;20276;-80
2022/11/06 10:03:00;;;;;;;;;;;;;;;;;;5050037;28;20014;-80
2022/11/06 10:05:26;;;;;;;;;;;;;;;;;;5048828;28;20361;-80
2022/11/06 10:07:52;;;;;;;;;;;;;;;;;;5050140;28;19917;-77
2022/11/06 10:10:18;;;;;;;;;;;;;;;;;;5046630;28;19921;-78
2022/11/06 10:12:44;;;;;;;;;;;;;;;;;;5047203;28;19909;-77
2022/11/06 10:15:10;;;;;;;;;;;;;;;;;;5049806;28;19916;-80
2022/11/06 10:17:36;;;;;;;;;;;;;;;;;;5045650;28;19971;-79
2022/11/06 10:20:02;;;;;;;;;;;;;;;;;;5049288;28;20292;-80
2022/11/06 10:22:27;;;;;;;;;;;;;;;;;;5048230;28;19913;-80
2022/11/06 10:24:53;;;;;;;;;;;;;;;;;;5049430;28;20809;-80
2022/11/06 10:27:19;;;;;;;;;;;;;;;;;;5046918;28;19937;-79
2022/11/06 10:29:45;;;;;;;;;;;;;;;;;;5047130;28;20357;-78
2022/11/06 10:32:11;;;;;;;;;;;;;;;;;;5047121;28;20016;-78
2022/11/06 10:34:37;;;;;;;;;;;;;;;;;;5043652;28;19924;-77
2022/11/06 10:37:03;;;;;;;;;;;;;;;;;;5049393;28;20557;-80
2022/11/06 10:39:29;;;;;;;;;;;;;;;;;;5048409;28;19916;-78
2022/11/06 10:41:55;;;;;;;;;;;;;;;;;;5048497;28;19912;-79
2022/11/06 10:44:20;;;;;;;;;;;;;;;;;;5049459;28;20388;-78
2022/11/06 10:46:46;;;;;;;;;;;;;;;;;;5032399;28;20016;-78
2022/11/06 10:49:12;;;;;;;;;;;;;;;;;;5048693;28;19916;-77
2022/11/06 10:51:38;;;;;;;;;;;;;;;;;;5049984;28;20388;-78
2022/11/06 10:54:04;;;;;;;;;;;;;;;;;;5048887;28;19939;-77
2022/11/06 10:56:30;;;;;;;;;;;;;;;;;;5049811;28;20004;-77
2022/11/06 10:58:56;;;;;;;;;;;;;;;;;;5054262;28;20007;-76
2022/11/06 11:01:22;;;;;;;;;;;;;;;;;;5050566;28;19916;-76
2022/11/06 11:03:49;;;;;;;;;;;;;;;;;;5049840;28;19956;-78
2022/11/06 11:06:15;;;;;;;;;;;;;;;;;;5049562;28;19920;-77
2022/11/06 11:08:41;;;;;;;;;;;;;;;;;;5049105;28;20332;-80
2022/11/06 11:11:07;;;;;;;;;;;;;;;;;;5049337;28;19974;-75
2022/11/06 11:13:33;;;;;;;;;;;;;;;;;;5049541;28;20377;-78
2022/11/06 11:15:58;;;;;;;;;;;;;;;;;;5047808;28;19921;-76
2022/11/06 11:18:29;;;;;;;;;;;;;;;;;;5048755;28;20003;-78
2022/11/06 11:20:55;;;;;;;;;;;;;;;;;;5045779;28;19924;-79
2022/11/06 11:23:21;;;;;;;;;;;;;;;;;;5049109;28;19913;-78
2022/11/06 11:25:47;;;;;;;;;;;;;;;;;;5048421;28;20007;-79
2022/11/06 11:28:13;;;;;;;;;;;;;;;;;;5048930;28;20444;-77
2022/11/06 11:30:39;;;;;;;;;;;;;;;;;;5048966;28;19917;-78
2022/11/06 11:33:05;;;;;;;;;;;;;;;;;;5048749;28;19916;-77
2022/11/06 11:35:31;;;;;;;;;;;;;;;;;;5048603;28;19963;-76
2022/11/06 11:37:56;;;;;;;;;;;;;;;;;;5049217;28;20369;-77
2022/11/06 11:40:22;;;;;;;;;;;;;;;;;;5048438;28;19963;-80
2022/11/06 11:42:48;;;;;;;;;;;;;;;;;;5049041;28;19917;-78
2022/11/06 11:45:14;;;;;;;;;;;;;;;;;;5047891;28;19996;-79
2022/11/06 11:47:40;;;;;;;;;;;;;;;;;;5048213;28;19913;-78
2022/11/06 11:50:06;;;;;;;;;;;;;;;;;;5047836;28;20360;-80
2022/11/06 11:52:32;;;;;;;;;;;;;;;;;;5048527;28;20011;-78
2022/11/06 11:54:58;;;;;;;;;;;;;;;;;;5048385;28;19959;-79
2022/11/06 11:57:24;;;;;;;;;;;;;;;;;;5048609;28;19924;-79
2022/11/06 11:59:49;;;;;;;;;;;;;;;;;;5048615;28;19999;-75
2022/11/06 12:02:15;;;;;;;;;;;;;;;;;;5043309;28;19963;-77
2022/11/06 12:04:42;;;;;;;;;;;;;;;;;;5046461;28;19920;-78
2022/11/06 12:07:07;;;;;;;;;;;;;;;;;;5046707;28;19931;-77
2022/11/06 12:09:33;;;;;;;;;;;;;;;;;;5046003;28;19913;-78
2022/11/06 12:11:59;;;;;;;;;;;;;;;;;;5044803;28;20373;-78
2022/11/06 12:14:28;;;;;;;;;;;;;;;;;;5047688;28;19913;-76
2022/11/06 12:16:54;;;;;;;;;;;;;;;;;;5041290;28;19916;-78
2022/11/06 12:19:20;;;;;;;;;;;;;;;;;;5047106;28;20381;-80
2022/11/06 12:21:46;;;;;;;;;;;;;;;;;;5024640;28;19920;-79
2022/11/06 12:24:12;;;;;;;;;;;;;;;;;;5047862;28;19913;-79
2022/11/06 12:26:38;;;;;;;;;;;;;;;;;;5043473;28;19936;-78
2022/11/06 12:29:04;;;;;;;;;;;;;;;;;;5047155;28;20012;-76
2022/11/06 12:31:30;;;;;;;;;;;;;;;;;;5042851;28;19913;-78
2022/11/06 12:33:56;;;;;;;;;;;;;;;;;;5045591;28;19913;-77
2022/11/06 12:36:22;;;;;;;;;;;;;;;;;;5042233;28;19920;-79
2022/11/06 12:38:48;;;;;;;;;;;;;;;;;;5042309;28;19924;-79
2022/11/06 12:41:14;;;;;;;;;;;;;;;;;;5045276;28;19916;-79
2022/11/06 12:43:40;;;;;;;;;;;;;;;;;;5045361;28;20050;-78
2022/11/06 12:46:06;;;;;;;;;;;;;;;;;;5045442;28;19943;-77
2022/11/06 12:48:31;;;;;;;;;;;;;;;;;;5042385;28;19936;-78
2022/11/06 12:50:57;;;;;;;;;;;;;;;;;;5046426;28;20389;-78
2022/11/06 12:53:23;;;;;;;;;;;;;;;;;;5043473;28;19916;-78
2022/11/06 12:55:49;;;;;;;;;;;;;;;;;;5045518;28;20421;-78
2022/11/06 12:58:15;;;;;;;;;;;;;;;;;;5044138;28;19924;-78
2022/11/06 13:00:41;;;;;;;;;;;;;;;;;;5046318;28;20270;-78
2022/11/06 13:03:07;;;;;;;;;;;;;;;;;;5043243;28;19924;-79
2022/11/06 13:05:33;;;;;;;;;;;;;;;;;;5046093;28;20020;-73
2022/11/06 13:07:58;;;;;;;;;;;;;;;;;;5042009;28;19912;-79
2022/11/06 13:10:24;;;;;;;;;;;;;;;;;;5046831;28;20582;-79
2022/11/06 13:12:50;;;;;;;;;;;;;;;;;;5045270;28;19912;-78
2022/11/06 13:15:16;;;;;;;;;;;;;;;;;;5046732;28;19917;-78
2022/11/06 13:17:42;;;;;;;;;;;;;;;;;;5046666;28;20035;-77
2022/11/06 13:20:08;;;;;;;;;;;;;;;;;;5047197;28;19909;-75
2022/11/06 13:22:34;;;;;;;;;;;;;;;;;;5048846;28;19913;-78
2022/11/06 13:25:00;;;;;;;;;;;;;;;;;;5049821;28;19982;-74
2022/11/06 13:27:26;;;;;;;;;;;;;;;;;;5048521;28;19927;-78
2022/11/06 13:29:52;;;;;;;;;;;;;;;;;;5048369;28;20693;-77
2022/11/06 13:32:17;;;;;;;;;;;;;;;;;;5050190;28;19921;-79
2022/11/06 13:34:43;;;;;;;;;;;;;;;;;;5047388;28;20397;-79
2022/11/06 13:37:09;;;;;;;;;;;;;;;;;;5050420;28;19913;-79
2022/11/06 13:39:35;;;;;;;;;;;;;;;;;;5046663;28;19912;-79
2022/11/06 13:42:01;;;;;;;;;;;;;;;;;;5050122;28;20384;-79
2022/11/06 13:44:27;;;;;;;;;;;;;;;;;;5048686;28;19917;-78
2022/11/06 13:46:53;;;;;;;;;;;;;;;;;;5051185;28;20332;-77
2022/11/06 13:49:19;;;;;;;;;;;;;;;;;;5047351;28;19917;-78
2022/11/06 13:51:45;;;;;;;;;;;;;;;;;;5049758;28;20415;-78
2022/11/06 13:54:11;;;;;;;;;;;;;;;;;;5030895;28;19912;-77
2022/11/06 13:56:36;;;;;;;;;;;;;;;;;;5049782;28;19916;-78
2022/11/06 13:59:02;;;;;;;;;;;;;;;;;;5043312;28;20011;-78
2022/11/06 14:01:28;;;;;;;;;;;;;;;;;;5045288;28;19916;-79
2022/11/06 14:03:54;;;;;;;;;;;;;;;;;;5046473;28;19959;-80
2022/11/06 14:06:20;;;;;;;;;;;;;;;;;;5048291;28;20316;-79
2022/11/06 14:08:46;;;;;;;;;;;;;;;;;;5045666;28;19913;-79
2022/11/06 14:11:12;;;;;;;;;;;;;;;;;;5048761;28;20336;-77
2022/11/06 14:13:38;;;;;;;;;;;;;;;;;;5048296;28;20007;-77
2022/11/06 14:16:04;;;;;;;;;;;;;;;;;;5045664;28;19915;-77
2022/11/06 14:18:29;;;;;;;;;;;;;;;;;;5045798;28;19921;-79
2022/11/06 14:20:55;;;;;;;;;;;;;;;;;;5046705;28;19912;-72
2022/11/06 14:23:21;;;;;;;;;;;;;;;;;;5044127;28;19916;-78
2022/11/06 14:25:47;;;;;;;;;;;;;;;;;;5044966;28;19929;-80
2022/11/06 14:28:13;;;;;;;;;;;;;;;;;;5048073;28;20352;-77
2022/11/06 14:30:39;;;;;;;;;;;;;;;;;;5045660;28;19916;-74
2022/11/06 14:33:05;;;;;;;;;;;;;;;;;;5049679;28;20739;-78
2022/11/06 14:35:31;;;;;;;;;;;;;;;;;;5045049;28;19916;-75
2022/11/06 14:37:57;;;;;;;;;;;;;;;;;;5045691;28;19917;-78
2022/11/06 14:40:22;;;;;;;;;;;;;;;;;;5048451;28;19918;-78
2022/11/06 14:42:48;;;;;;;;;;;;;;;;;;5049293;28;19920;-76
2022/11/06 14:45:14;;;;;;;;;;;;;;;;;;5047856;28;19970;-76
2022/11/06 14:47:40;;;;;;;;;;;;;;;;;;5047583;28;19921;-78
2022/11/06 14:50:06;;;;;;;;;;;;;;;;;;5025055;28;19917;-77
2022/11/06 14:52:32;;;;;;;;;;;;;;;;;;5045788;28;19924;-77
2022/11/06 14:54:58;;;;;;;;;;;;;;;;;;5048322;28;19955;-78
2022/11/06 14:57:24;;;;;;;;;;;;;;;;;;5045416;28;20360;-77
2022/11/06 14:59:49;;;;;;;;;;;;;;;;;;5048044;28;20343;-77
2022/11/06 15:02:15;;;;;;;;;;;;;;;;;;5046425;28;19920;-78
2022/11/06 15:04:41;;;;;;;;;;;;;;;;;;5049601;28;19966;-76
2022/11/06 15:07:07;;;;;;;;;;;;;;;;;;5048950;28;20393;-75
2022/11/06 15:09:33;;;;;;;;;;;;;;;;;;5049767;28;19951;-77
2022/11/06 15:11:59;;;;;;;;;;;;;;;;;;5049364;28;20355;-77
2022/11/06 15:14:25;;;;;;;;;;;;;;;;;;5048820;28;19913;-77
2022/11/06 15:16:51;;;;;;;;;;;;;;;;;;5049796;28;19958;-68
2022/11/06 15:19:17;;;;;;;;;;;;;;;;;;5049321;28;19913;-76
2022/11/06 15:21:43;;;;;;;;;;;;;;;;;;5048713;28;20503;-78
2022/11/06 15:24:08;;;;;;;;;;;;;;;;;;5048525;28;20004;-75
2022/11/06 15:26:34;;;;;;;;;;;;;;;;;;5049502;28;20106;-75
2022/11/06 15:29:00;;;;;;;;;;;;;;;;;;5046936;28;20003;-74
2022/11/06 15:31:26;;;;;;;;;;;;;;;;;;5049097;28;19916;-75
2022/11/06 15:33:52;;;;;;;;;;;;;;;;;;5049384;28;19924;-77
2022/11/06 15:36:18;;;;;;;;;;;;;;;;;;5048836;28;19921;-78
2022/11/06 15:38:44;;;;;;;;;;;;;;;;;;5048407;28;21503;-77
2022/11/06 15:41:10;;;;;;;;;;;;;;;;;;5048985;28;19932;-73
2022/11/06 15:43:36;;;;;;;;;;;;;;;;;;5048304;28;20011;-77
2022/11/06 15:46:02;;;;;;;;;;;;;;;;;;5047476;28;20055;-75
2022/11/06 15:48:28;;;;;;;;;;;;;;;;;;5045789;28;20023;-78
2022/11/06 15:50:54;;;;;;;;;;;;;;;;;;5048348;28;20023;-78
2022/11/06 15:53:20;;;;;;;;;;;;;;;;;;5048355;28;20270;-75
2022/11/06 15:55:46;;;;;;;;;;;;;;;;;;5047447;28;20011;-77
2022/11/06 15:58:12;;;;;;;;;;;;;;;;;;5046921;28;20416;-76
2022/11/06 16:00:38;;;;;;;;;;;;;;;;;;5048506;28;19917;-77
2022/11/06 16:03:04;;;;;;;;;;;;;;;;;;5045902;28;20523;-76
2022/11/06 16:05:30;;;;;;;;;;;;;;;;;;5047875;28;19928;-78
2022/11/06 16:07:56;;;;;;;;;;;;;;;;;;5044870;28;20297;-71
2022/11/06 16:10:22;;;;;;;;;;;;;;;;;;5047608;28;19920;-77
2022/11/06 16:12:48;;;;;;;;;;;;;;;;;;5046896;28;20614;-78
2022/11/06 16:15:13;;;;;;;;;;;;;;;;;;5047855;28;19916;-78
2022/11/06 16:17:39;;;;;;;;;;;;;;;;;;5029876;28;19916;-78
2022/11/06 16:20:05;;;;;;;;;;;;;;;;;;5047674;28;20388;-77
2022/11/06 16:22:33;;;;;;;;;;;;;;;;;;5047453;28;19963;-77
2022/11/06 16:24:59;;;;;;;;;;;;;;;;;;5044395;28;20404;-78
2022/11/06 16:27:25;;;;;;;;;;;;;;;;;;5047177;28;19932;-77
2022/11/06 16:29:50;;;;;;;;;;;;;;;;;;5047393;28;19972;-76
2022/11/06 16:32:16;;;;;;;;;;;;;;;;;;5047356;28;19916;-77
2022/11/06 16:34:43;;;;;;;;;;;;;;;;;;5047924;28;20007;-76
2022/11/06 16:37:09;;;;;;;;;;;;;;;;;;5044009;28;19915;-78
2022/11/06 16:39:35;;;;;;;;;;;;;;;;;;5040770;28;19916;-76
2022/11/06 16:42:02;;;;;;;;;;;;;;;;;;5043672;28;19913;-75
2022/11/06 16:44:28;;;;;;;;;;;;;;;;;;5044153;28;19928;-74
2022/11/06 16:46:54;;;;;;;;;;;;;;;;;;5046328;28;19920;-75
2022/11/06 16:49:19;;;;;;;;;;;;;;;;;;5043978;28;19921;-78